createdAt,value
2017-11-30T00:01:15.666Z,36.00
2017-11-30T00:03:43.055Z,35.30
2017-11-30T00:06:10.468Z,35.20
2017-11-30T00:08:37.891Z,35.70
2017-11-30T00:11:05.349Z,35.37
2017-11-30T00:13:32.747Z,34.27
2017-11-30T00:16:00.132Z,34.97
2017-11-30T00:18:27.524Z,33.07
2017-11-30T00:20:54.909Z,33.47
2017-11-30T00:23:22.329Z,33.17
2017-11-30T00:25:49.721Z,32.90
2017-11-30T00:28:17.117Z,34.07
2017-11-30T00:30:44.502Z,33.40
2017-11-30T00:33:11.900Z,34.07
2017-11-30T00:35:39.283Z,34.87
2017-11-30T00:38:06.679Z,33.87
2017-11-30T00:40:34.101Z,36.17
2017-11-30T00:43:13.140Z,36.40
2017-11-30T00:45:40.528Z,33.20
2017-11-30T00:48:07.932Z,37.53
2017-11-30T00:50:35.324Z,37.77
2017-11-30T00:53:02.751Z,37.90
2017-11-30T00:55:30.140Z,37.07
2017-11-30T00:57:57.535Z,31.77
2017-11-30T01:00:24.955Z,32.00
2017-11-30T01:02:52.308Z,31.53
2017-11-30T01:05:19.696Z,32.80
2017-11-30T01:07:47.080Z,35.53
2017-11-30T01:10:14.472Z,35.00
2017-11-30T01:12:41.893Z,33.43
2017-11-30T01:15:09.345Z,35.53
2017-11-30T01:17:36.816Z,34.80
2017-11-30T01:20:04.204Z,37.80
2017-11-30T01:22:31.616Z,37.43
2017-11-30T01:24:59.018Z,37.63
2017-11-30T01:27:26.427Z,37.60
2017-11-30T01:29:53.880Z,36.53
2017-11-30T01:32:21.279Z,36.13
2017-11-30T01:34:48.677Z,35.70
2017-11-30T01:37:16.156Z,31.90
2017-11-30T01:39:43.547Z,33.20
2017-11-30T01:42:10.944Z,34.93
2017-11-30T01:44:38.415Z,34.47
2017-11-30T01:47:05.812Z,36.10
2017-11-30T01:49:33.195Z,32.27
2017-11-30T01:52:00.595Z,33.70
2017-11-30T01:57:18.560Z,35.27
2017-11-30T01:59:45.953Z,34.53
2017-11-30T02:02:13.380Z,35.47
2017-11-30T02:04:40.777Z,37.07
2017-11-30T02:07:08.169Z,37.50
2017-11-30T02:09:35.569Z,38.97
2017-11-30T02:12:02.967Z,38.93
2017-11-30T02:14:30.361Z,39.77
2017-11-30T02:16:57.780Z,41.37
2017-11-30T02:19:25.172Z,45.00
2017-11-30T02:21:52.574Z,42.50
2017-11-30T02:24:19.965Z,45.83
2017-11-30T02:26:47.368Z,48.53
2017-11-30T02:29:14.752Z,48.83
2017-11-30T02:31:42.156Z,47.30
2017-11-30T02:34:09.540Z,45.70
2017-11-30T02:36:36.941Z,47.90
2017-11-30T02:39:04.363Z,49.77
2017-11-30T02:41:31.832Z,48.93
2017-11-30T02:43:59.219Z,48.90
2017-11-30T02:46:26.632Z,49.87
2017-11-30T02:48:54.039Z,48.77
2017-11-30T02:51:21.437Z,48.93
2017-11-30T02:53:48.840Z,52.70
2017-11-30T02:56:16.261Z,48.50
2017-11-30T02:58:43.658Z,49.70
2017-11-30T03:01:11.086Z,47.97
2017-11-30T03:03:38.493Z,50.00
2017-11-30T03:06:05.889Z,48.20
2017-11-30T03:08:33.296Z,48.47
2017-11-30T03:11:00.794Z,49.57
2017-11-30T03:13:28.193Z,47.83
2017-11-30T03:15:55.592Z,48.37
2017-11-30T03:18:23.057Z,48.77
2017-11-30T03:20:50.439Z,48.27
2017-11-30T03:25:45.053Z,52.50
2017-11-30T03:28:12.451Z,48.77
2017-11-30T03:30:39.939Z,50.70
2017-11-30T03:33:07.336Z,50.27
2017-11-30T03:35:34.748Z,49.90
2017-11-30T03:38:02.199Z,46.90
2017-11-30T03:40:29.580Z,48.47
2017-11-30T03:42:56.987Z,47.47
2017-11-30T03:45:24.467Z,48.10
2017-11-30T03:47:51.870Z,46.57
2017-11-30T03:50:19.268Z,48.80
2017-11-30T03:52:46.719Z,46.30
2017-11-30T03:55:14.124Z,49.40
2017-11-30T03:57:41.508Z,47.03
2017-11-30T04:00:08.907Z,46.80
2017-11-30T04:02:36.291Z,47.07
2017-11-30T04:05:03.695Z,48.00
2017-11-30T04:07:31.156Z,49.83
2017-11-30T04:09:58.558Z,45.13
2017-11-30T04:12:25.971Z,46.17
2017-11-30T04:14:53.371Z,48.10
2017-11-30T04:17:20.775Z,49.10
2017-11-30T04:19:48.170Z,46.77
2017-11-30T04:22:15.555Z,44.43
2017-11-30T04:24:42.958Z,47.57
2017-11-30T04:29:48.804Z,47.03
2017-11-30T04:32:16.202Z,44.57
2017-11-30T04:34:43.600Z,45.47
2017-11-30T04:37:11.097Z,47.47
2017-11-30T04:39:38.554Z,46.87
2017-11-30T04:42:05.931Z,46.00
2017-11-30T04:44:33.328Z,47.30
2017-11-30T04:47:00.808Z,45.17
2017-11-30T04:49:28.207Z,43.60
2017-11-30T04:51:55.599Z,42.27
2017-11-30T04:54:22.999Z,45.93
2017-11-30T04:56:50.424Z,43.07
2017-11-30T04:59:17.815Z,44.27
2017-11-30T05:01:45.221Z,43.17
2017-11-30T05:04:12.687Z,41.80
2017-11-30T05:06:40.151Z,44.67
2017-11-30T05:09:07.540Z,43.70
2017-11-30T05:11:34.943Z,44.07
2017-11-30T05:14:02.340Z,46.50
2017-11-30T05:16:29.739Z,44.10
2017-11-30T05:18:57.232Z,44.67
2017-11-30T05:21:24.632Z,42.60
2017-11-30T05:23:52.028Z,45.97
2017-11-30T05:26:19.489Z,41.97
2017-11-30T05:28:46.891Z,48.20
2017-11-30T05:31:14.268Z,43.97
2017-11-30T05:33:41.656Z,44.20
2017-11-30T05:36:09.115Z,43.60
2017-11-30T05:38:36.509Z,45.17
2017-11-30T05:41:03.916Z,45.13
2017-11-30T05:43:31.391Z,45.10
2017-11-30T05:45:58.792Z,45.87
2017-11-30T05:48:26.185Z,42.50
2017-11-30T05:50:53.575Z,43.47
2017-11-30T05:53:21.025Z,41.37
2017-11-30T05:55:48.424Z,43.07
2017-11-30T05:58:15.819Z,43.60
2017-11-30T06:00:43.209Z,45.30
2017-11-30T06:03:10.599Z,43.80
2017-11-30T06:05:37.986Z,41.83
2017-11-30T06:08:05.392Z,40.10
2017-11-30T06:10:32.781Z,39.40
2017-11-30T06:13:00.167Z,38.63
2017-11-30T06:15:27.573Z,41.60
2017-11-30T06:17:54.970Z,41.37
2017-11-30T06:20:22.356Z,39.63
2017-11-30T06:22:49.774Z,40.47
2017-11-30T06:25:17.157Z,40.00
2017-11-30T06:27:44.555Z,40.17
2017-11-30T06:30:11.953Z,39.30
2017-11-30T06:32:39.348Z,40.57
2017-11-30T06:35:06.743Z,40.97
2017-11-30T06:37:34.213Z,38.23
2017-11-30T06:40:01.609Z,43.97
2017-11-30T06:42:29.024Z,41.30
2017-11-30T06:44:56.411Z,43.67
2017-11-30T06:47:23.811Z,40.73
2017-11-30T06:49:51.288Z,40.47
2017-11-30T06:52:18.744Z,38.47
2017-11-30T06:54:46.140Z,42.97
2017-11-30T06:57:13.523Z,42.43
2017-11-30T06:59:40.928Z,41.90
2017-11-30T07:02:08.371Z,44.23
2017-11-30T07:04:35.767Z,44.47
2017-11-30T07:07:03.172Z,45.20
2017-11-30T07:09:30.576Z,45.90
2017-11-30T07:11:57.991Z,40.80
2017-11-30T07:14:25.383Z,43.40
2017-11-30T07:16:52.800Z,43.00
2017-11-30T07:19:20.201Z,44.20
2017-11-30T07:21:47.592Z,43.60
2017-11-30T07:24:15.069Z,46.13
2017-11-30T07:26:42.443Z,44.00
2017-11-30T07:29:09.839Z,44.33
2017-11-30T07:31:37.332Z,45.50
2017-11-30T07:34:04.793Z,44.37
2017-11-30T07:36:32.183Z,46.50
2017-11-30T07:38:59.583Z,44.10
2017-11-30T07:41:26.968Z,46.67
2017-11-30T07:43:54.380Z,45.53
2017-11-30T07:46:21.786Z,46.30
2017-11-30T07:48:49.224Z,43.90
2017-11-30T07:51:16.624Z,40.53
2017-11-30T07:53:44.017Z,43.47
2017-11-30T07:56:11.484Z,44.80
2017-11-30T07:58:38.877Z,44.30
2017-11-30T08:01:06.294Z,40.90
2017-11-30T08:03:33.761Z,44.10
2017-11-30T08:06:01.156Z,44.27
2017-11-30T08:08:28.548Z,42.27
2017-11-30T08:10:55.944Z,41.00
2017-11-30T08:13:23.375Z,45.17
2017-11-30T08:15:50.777Z,42.93
2017-11-30T08:18:18.175Z,46.47
2017-11-30T08:20:45.584Z,45.00
2017-11-30T08:23:13.004Z,42.57
2017-11-30T08:25:40.402Z,45.00
2017-11-30T08:28:07.800Z,43.40
2017-11-30T08:30:35.279Z,44.87
2017-11-30T08:33:02.667Z,42.60
2017-11-30T08:35:30.064Z,42.80
2017-11-30T08:37:57.455Z,43.93
2017-11-30T08:40:24.871Z,45.90
2017-11-30T08:42:52.248Z,45.60
2017-11-30T08:45:19.635Z,42.87
2017-11-30T08:47:47.032Z,45.83
2017-11-30T08:50:14.415Z,43.97
2017-11-30T08:52:41.807Z,45.53
2017-11-30T08:55:09.213Z,48.20
2017-11-30T08:57:36.610Z,48.03
2017-11-30T09:00:04.028Z,44.00
2017-11-30T09:02:31.443Z,43.17
2017-11-30T09:04:58.919Z,42.57
2017-11-30T09:07:26.312Z,44.00
2017-11-30T09:09:53.721Z,42.03
2017-11-30T09:12:21.170Z,44.60
2017-11-30T09:14:48.562Z,42.60
2017-11-30T09:17:15.964Z,46.93
2017-11-30T09:19:43.352Z,46.20
2017-11-30T09:22:10.753Z,44.37
2017-11-30T09:24:38.142Z,43.30
2017-11-30T09:27:05.545Z,44.27
2017-11-30T09:29:32.989Z,44.53
2017-11-30T09:32:00.389Z,45.60
2017-11-30T09:34:27.779Z,43.63
2017-11-30T09:36:55.171Z,43.90
2017-11-30T09:39:22.557Z,42.00
2017-11-30T09:41:49.964Z,43.07
2017-11-30T09:44:17.351Z,45.67
2017-11-30T09:46:44.748Z,44.80
2017-11-30T09:49:12.155Z,41.87
2017-11-30T09:51:39.548Z,40.87
2017-11-30T09:54:06.950Z,41.70
2017-11-30T09:56:34.335Z,43.60
2017-11-30T09:59:01.740Z,43.20
2017-11-30T10:01:29.130Z,42.23
2017-11-30T10:03:56.524Z,44.80
2017-11-30T10:06:23.928Z,39.63
2017-11-30T10:08:51.333Z,42.97
2017-11-30T10:11:18.733Z,42.30
2017-11-30T10:13:46.151Z,41.80
2017-11-30T10:16:13.542Z,39.70
2017-11-30T10:18:40.941Z,38.23
2017-11-30T10:21:08.328Z,37.83
2017-11-30T10:23:35.787Z,39.37
2017-11-30T10:26:03.180Z,39.83
2017-11-30T10:28:30.580Z,38.40
2017-11-30T10:30:58.058Z,38.33
2017-11-30T10:33:25.504Z,38.27
2017-11-30T10:35:52.910Z,38.50
2017-11-30T10:38:20.321Z,37.10
2017-11-30T10:40:47.707Z,39.07
2017-11-30T10:43:15.128Z,36.73
2017-11-30T10:45:42.524Z,39.50
2017-11-30T10:48:09.919Z,37.97
2017-11-30T10:50:37.312Z,34.87
2017-11-30T10:53:04.703Z,37.10
2017-11-30T10:55:32.199Z,37.67
2017-11-30T10:57:59.599Z,39.47
2017-11-30T11:00:26.995Z,36.40
2017-11-30T11:02:54.383Z,34.93
2017-11-30T11:05:21.797Z,38.30
2017-11-30T11:07:49.180Z,39.03
2017-11-30T11:10:16.588Z,39.70
2017-11-30T11:12:43.989Z,41.00
2017-11-30T11:15:11.388Z,39.67
2017-11-30T11:17:38.780Z,40.87
2017-11-30T11:20:06.176Z,37.57
2017-11-30T11:22:33.564Z,39.90
2017-11-30T11:25:00.956Z,41.07
2017-11-30T11:27:28.352Z,38.60
2017-11-30T11:29:55.747Z,41.27
2017-11-30T11:32:23.148Z,38.50
2017-11-30T11:34:50.550Z,38.00
2017-11-30T11:37:17.943Z,39.00
2017-11-30T11:39:45.329Z,32.60
2017-11-30T11:42:12.748Z,43.07
2017-11-30T11:44:40.157Z,48.20
2017-11-30T11:47:07.558Z,36.80
2017-11-30T11:49:35.016Z,36.80
2017-11-30T11:52:02.472Z,38.50
2017-11-30T11:54:29.858Z,30.70
2017-11-30T11:56:57.280Z,36.50
2017-11-30T11:59:24.688Z,32.20
2017-11-30T12:01:52.103Z,36.20
2017-11-30T12:04:19.462Z,33.73
2017-11-30T12:06:46.868Z,34.70
2017-11-30T12:09:14.251Z,32.40
2017-11-30T12:11:41.652Z,32.93
2017-11-30T12:14:09.059Z,33.70
2017-11-30T12:16:36.460Z,36.27
2017-11-30T12:19:03.856Z,32.13
2017-11-30T12:21:31.323Z,34.60
2017-11-30T12:23:58.736Z,31.10
2017-11-30T12:26:26.366Z,34.53
2017-11-30T12:28:53.744Z,29.40
2017-11-30T12:31:21.140Z,33.70
2017-11-30T12:33:48.532Z,34.90
2017-11-30T12:36:15.941Z,34.17
2017-11-30T12:38:43.340Z,32.13
2017-11-30T12:41:10.741Z,29.80
2017-11-30T12:43:38.232Z,32.90
2017-11-30T12:46:05.616Z,37.47
2017-11-30T12:48:32.998Z,34.20
2017-11-30T12:51:00.404Z,30.80
2017-11-30T12:53:27.792Z,36.13
2017-11-30T12:55:55.212Z,30.60
2017-11-30T12:58:22.594Z,29.00
2017-11-30T13:00:50.042Z,30.90
2017-11-30T13:03:17.410Z,31.30
2017-11-30T13:05:44.798Z,32.20
2017-11-30T13:08:12.203Z,34.00
2017-11-30T13:10:39.647Z,32.70
2017-11-30T13:13:07.001Z,31.73
2017-11-30T13:15:34.474Z,31.77
2017-11-30T13:18:01.866Z,30.57
2017-11-30T13:20:29.258Z,30.13
2017-11-30T13:22:56.645Z,30.40
2017-11-30T13:25:24.033Z,29.63
2017-11-30T13:27:51.422Z,30.33
2017-11-30T13:30:18.866Z,30.73
2017-11-30T13:32:46.258Z,29.60
2017-11-30T13:35:13.639Z,28.60
2017-11-30T13:37:41.065Z,28.00
2017-11-30T13:40:08.495Z,27.27
2017-11-30T13:42:35.911Z,25.57
2017-11-30T13:45:03.342Z,28.90
2017-11-30T13:47:30.813Z,25.57
2017-11-30T13:49:58.210Z,27.93
2017-11-30T13:52:25.626Z,27.00
2017-11-30T13:54:53.008Z,27.30
2017-11-30T13:57:20.504Z,29.07
2017-11-30T13:59:47.946Z,25.73
2017-11-30T14:02:15.372Z,25.30
2017-11-30T14:04:42.790Z,23.87
2017-11-30T14:07:10.174Z,23.90
2017-11-30T14:09:37.562Z,26.43
2017-11-30T14:12:04.959Z,24.70
2017-11-30T14:14:32.443Z,23.97
2017-11-30T14:16:59.913Z,24.33
2017-11-30T14:19:27.299Z,22.60
2017-11-30T14:21:54.694Z,24.93
2017-11-30T14:24:22.182Z,21.73
2017-11-30T14:26:49.569Z,23.83
2017-11-30T14:29:16.995Z,23.80
2017-11-30T14:31:44.464Z,21.87
2017-11-30T14:34:11.899Z,22.53
2017-11-30T14:36:39.294Z,21.40
2017-11-30T14:39:06.689Z,30.87
2017-11-30T14:41:34.074Z,22.37
2017-11-30T14:44:01.526Z,23.40
2017-11-30T14:46:28.920Z,23.10
2017-11-30T14:48:56.329Z,24.43
2017-11-30T14:51:23.794Z,21.63
2017-11-30T14:53:51.190Z,22.00
2017-11-30T14:56:18.574Z,18.43
2017-11-30T14:58:45.966Z,20.60
2017-11-30T15:01:13.414Z,21.10
2017-11-30T15:03:40.811Z,18.73
2017-11-30T15:06:08.206Z,21.50
2017-11-30T15:08:35.625Z,19.30
2017-11-30T15:11:03.043Z,17.83
2017-11-30T15:13:30.430Z,19.47
2017-11-30T15:15:57.817Z,18.83
2017-11-30T15:18:25.294Z,20.90
2017-11-30T15:20:52.699Z,21.00
2017-11-30T15:23:20.078Z,19.17
2017-11-30T15:25:47.469Z,20.70
2017-11-30T15:28:14.914Z,21.07
2017-11-30T15:30:42.378Z,20.87
2017-11-30T15:33:09.828Z,20.17
2017-11-30T15:35:37.298Z,21.20
2017-11-30T15:38:04.696Z,20.30
2017-11-30T15:40:32.089Z,21.80
2017-11-30T15:42:59.475Z,20.33
2017-11-30T15:45:26.876Z,20.77
2017-11-30T15:47:54.254Z,21.77
2017-11-30T15:50:21.648Z,22.87
2017-11-30T15:52:49.074Z,22.50
2017-11-30T15:55:16.530Z,21.63
2017-11-30T15:57:43.987Z,22.50
2017-11-30T16:00:11.383Z,23.80
2017-11-30T16:02:38.797Z,22.50
2017-11-30T16:05:06.186Z,24.37
2017-11-30T16:07:33.575Z,22.40
2017-11-30T16:10:01.063Z,24.43
2017-11-30T16:12:28.451Z,23.83
2017-11-30T16:14:55.871Z,23.20
2017-11-30T16:17:23.323Z,22.60
2017-11-30T16:19:50.722Z,21.90
2017-11-30T16:22:18.110Z,21.90
2017-11-30T16:24:45.508Z,21.30
2017-11-30T16:27:12.973Z,22.60
2017-11-30T16:29:40.398Z,23.93
2017-11-30T16:32:07.798Z,24.77
2017-11-30T16:34:35.182Z,25.60
2017-11-30T16:37:02.585Z,23.03
2017-11-30T16:39:30.094Z,23.67
2017-11-30T16:41:57.494Z,23.87
2017-11-30T16:44:24.890Z,23.90
2017-11-30T16:46:52.414Z,22.93
2017-11-30T16:49:19.798Z,22.63
2017-11-30T16:51:47.197Z,23.27
2017-11-30T16:54:14.599Z,22.40
2017-11-30T16:56:42.001Z,23.73
2017-11-30T16:59:09.470Z,25.07
2017-11-30T17:01:36.942Z,25.73
2017-11-30T17:04:04.384Z,25.77
2017-11-30T17:06:31.786Z,24.00
2017-11-30T17:08:59.176Z,22.07
2017-11-30T17:11:26.607Z,24.53
2017-11-30T17:13:54.103Z,26.83
2017-11-30T17:16:21.553Z,25.47
2017-11-30T17:18:48.948Z,23.93
2017-11-30T17:21:16.330Z,24.43
2017-11-30T17:23:43.724Z,24.23
2017-11-30T17:26:11.182Z,22.93
2017-11-30T17:28:38.645Z,25.37
2017-11-30T17:31:06.091Z,23.77
2017-11-30T17:33:33.478Z,23.97
2017-11-30T17:36:00.870Z,23.37
2017-11-30T17:38:28.254Z,24.77
2017-11-30T17:40:55.639Z,23.33
2017-11-30T17:43:23.063Z,24.20
2017-11-30T17:45:50.453Z,24.87
2017-11-30T17:48:17.878Z,27.50
2017-11-30T17:50:45.330Z,28.00
2017-11-30T17:53:12.718Z,25.57
2017-11-30T17:55:40.126Z,25.43
2017-11-30T17:58:07.606Z,24.03
2017-11-30T18:00:34.999Z,26.90
2017-11-30T18:03:02.414Z,25.77
2017-11-30T18:05:29.862Z,23.77
2017-11-30T18:07:57.335Z,24.80
2017-11-30T18:10:24.718Z,24.90
2017-11-30T18:12:52.115Z,26.97
2017-11-30T18:15:19.496Z,22.70
2017-11-30T18:17:46.915Z,25.50
2017-11-30T18:20:14.290Z,25.73
2017-11-30T18:25:31.984Z,25.70
2017-11-30T18:27:59.482Z,23.00
2017-11-30T18:30:26.842Z,22.20
2017-11-30T18:32:54.231Z,27.00
2017-11-30T18:35:21.626Z,25.33
2017-11-30T18:37:49.022Z,25.30
2017-11-30T18:40:16.446Z,23.83
2017-11-30T18:42:43.890Z,23.60
2017-11-30T18:45:11.286Z,26.10
2017-11-30T18:47:38.690Z,24.57
2017-11-30T18:50:06.077Z,25.13
2017-11-30T18:52:33.471Z,23.53
2017-11-30T18:55:00.860Z,24.60
2017-11-30T18:57:28.242Z,24.33
2017-11-30T18:59:55.630Z,24.73
2017-11-30T19:02:23.017Z,25.50
2017-11-30T19:04:50.414Z,28.80
2017-11-30T19:07:17.802Z,28.37
2017-11-30T19:09:45.202Z,27.93
2017-11-30T19:12:12.586Z,26.17
2017-11-30T19:14:39.984Z,26.37
2017-11-30T19:17:07.367Z,27.47
2017-11-30T19:19:34.821Z,26.53
2017-11-30T19:22:02.206Z,26.30
2017-11-30T19:24:29.598Z,25.90
2017-11-30T19:26:57.083Z,26.90
2017-11-30T19:29:24.473Z,25.60
2017-11-30T19:31:51.866Z,24.60
2017-11-30T19:34:19.255Z,26.10
2017-11-30T19:36:46.727Z,24.97
2017-11-30T19:39:14.111Z,25.63
2017-11-30T19:41:41.532Z,25.77
2017-11-30T19:44:08.917Z,24.70
2017-11-30T19:46:36.306Z,25.40
2017-11-30T19:49:03.800Z,25.60
2017-11-30T19:51:31.269Z,24.83
2017-11-30T19:53:58.706Z,22.90
2017-11-30T19:56:26.166Z,24.80
2017-11-30T19:58:53.626Z,24.20
2017-11-30T20:01:21.019Z,25.03
2017-11-30T20:03:48.437Z,25.40
2017-11-30T20:06:15.886Z,25.40
2017-11-30T20:08:43.346Z,25.43
2017-11-30T20:11:10.746Z,22.93
2017-11-30T20:13:38.124Z,21.53
2017-11-30T20:16:05.644Z,23.03
2017-11-30T20:18:33.014Z,22.90
2017-11-30T20:21:00.426Z,22.93
2017-11-30T20:23:27.823Z,23.40
2017-11-30T20:25:55.233Z,23.00
2017-11-30T20:28:22.627Z,23.30
2017-11-30T20:30:50.046Z,24.03
2017-11-30T20:33:17.441Z,22.40
2017-11-30T20:35:44.855Z,23.97
2017-11-30T20:38:12.282Z,24.83
2017-11-30T20:40:39.692Z,22.87
2017-11-30T20:43:07.094Z,21.73
2017-11-30T20:45:34.593Z,21.87
2017-11-30T20:48:02.074Z,20.77
2017-11-30T20:50:29.495Z,22.40
2017-11-30T20:52:56.942Z,23.30
2017-11-30T20:55:24.331Z,23.03
2017-11-30T20:57:51.732Z,23.27
2017-11-30T21:00:19.135Z,25.60
2017-11-30T21:02:46.571Z,24.67
2017-11-30T21:05:13.960Z,23.70
2017-11-30T21:07:41.398Z,25.50
2017-11-30T21:10:08.782Z,22.33
2017-11-30T21:12:36.188Z,24.90
2017-11-30T21:15:03.570Z,22.93
2017-11-30T21:17:31.002Z,22.83
2017-11-30T21:19:58.398Z,23.03
2017-11-30T21:22:25.819Z,23.43
2017-11-30T21:24:53.287Z,22.10
2017-11-30T21:27:20.758Z,23.20
2017-11-30T21:29:48.158Z,24.60
2017-11-30T21:32:15.554Z,23.40
2017-11-30T21:34:42.961Z,25.80
2017-11-30T21:37:10.358Z,23.23
2017-11-30T21:39:37.738Z,24.20
2017-11-30T21:42:05.146Z,23.70
2017-11-30T21:44:32.540Z,21.30
2017-11-30T21:46:59.922Z,22.97
2017-11-30T21:49:27.313Z,22.73
2017-11-30T21:51:54.703Z,21.83
2017-11-30T21:54:22.118Z,21.97
2017-11-30T21:56:49.514Z,19.80
2017-11-30T21:59:16.910Z,19.83
2017-11-30T22:01:44.309Z,18.70
2017-11-30T22:04:11.746Z,21.97
2017-11-30T22:06:39.174Z,21.60
2017-11-30T22:09:06.576Z,20.63
2017-11-30T22:11:33.964Z,20.97
2017-11-30T22:14:01.373Z,21.63
2017-11-30T22:16:28.760Z,20.13
2017-11-30T22:18:56.178Z,20.20
2017-11-30T22:21:23.568Z,19.17
2017-11-30T22:23:50.969Z,20.93
2017-11-30T22:26:18.445Z,21.03
2017-11-30T22:28:45.923Z,20.23
2017-11-30T22:31:13.374Z,20.40
2017-11-30T22:33:40.754Z,18.93
2017-11-30T22:36:08.166Z,18.93
2017-11-30T22:38:35.618Z,19.13
2017-11-30T22:41:03.080Z,20.20
2017-11-30T22:43:30.531Z,19.37
2017-11-30T22:45:57.990Z,20.03
2017-11-30T22:48:25.386Z,19.37
2017-11-30T22:50:52.783Z,19.63
2017-11-30T22:53:20.237Z,17.97
2017-11-30T22:55:47.617Z,19.07
2017-11-30T22:58:15.066Z,20.20
2017-11-30T23:00:42.463Z,19.13
2017-11-30T23:03:09.858Z,18.40
2017-11-30T23:05:37.266Z,19.60
2017-11-30T23:08:04.666Z,18.80
2017-11-30T23:10:32.126Z,20.00
2017-11-30T23:12:59.466Z,19.03
2017-11-30T23:15:26.862Z,20.30
2017-11-30T23:17:54.358Z,18.90
2017-11-30T23:20:21.758Z,19.60
2017-11-30T23:22:49.151Z,21.17
2017-11-30T23:25:16.627Z,20.73
2017-11-30T23:27:44.078Z,20.00
2017-11-30T23:30:11.478Z,21.67
2017-11-30T23:32:38.877Z,19.37
2017-11-30T23:35:06.266Z,19.67
2017-11-30T23:37:33.653Z,18.73
2017-11-30T23:40:01.069Z,19.97
2017-11-30T23:42:28.450Z,20.83
2017-11-30T23:44:55.848Z,20.53
2017-11-30T23:47:23.234Z,19.77
2017-11-30T23:49:50.690Z,20.43
2017-11-30T23:52:18.142Z,20.23
2017-11-30T23:54:45.534Z,20.70
2017-11-30T23:57:12.959Z,20.33
2017-11-30T23:59:40.361Z,19.63
